Albany, Georgia
Current Conditions -  °F | °C
As of 7:06 AM on Monday 24 Nov 2014 (Local Time) from KABY Reporting Station
Haze Haze  
Wind Chill: 68°   Ceiling: 4400
Heat Index: 68°   Visibility: 3mi
Dew Point: 66°   Wind: 7mph
Humidity: 94%   Direction: 230°SW
Pressure: 29.83"   Gusts: NA
Location:  31.58°N, 84.15°W
Report Text: KABY 241206Z 23006KT 3SM BR FEW034 BKN044 OVC065 20/19 A2983 RMK AO2 TSE01 P0003 PWINO $
Loading
Personal Weather Stations






























Interactive Weather Map New forecast layout! Learn more

10-Day Weather Forecast

Advertisements
Track Severe Weather on mobile